Sovereign — ZGBZ4 — position and weather

sailwx.info

Track history (hours):
 
Tides and Currents Weather Stations Pressure Air Temp Water Temp Dewpoint Dewpoint Depression Visibility Wind Speed Wind Dir Waves Ship Positions

Sovereign

Last reported at 2015-Jul-04 11:28 UTC. Time now 2015-Jul-07 00:21 UTC.
Position N 42°28' E 018°22'.

Length 55 m; draft 3 m.

Type: Pleasure craft. MMSI: 319931000.

Date/timePositionNaut miles runAvg speedWind from/ knotsBaromVisibWave heightAir tempDewpointWater temp
2015-Jul-04 11:28N 42°28' E 018°22'8 8.0
2015-Jul-04 10:26N 42°25' E 018°32'6 7.2
2015-Jul-04 09:33N 42°26' E 018°41'0 0.2
2015-Jul-04 07:10N 42°26' E 018°41'0 0.0
2015-Jul-04 06:31N 42°26' E 018°41'2 2.5
2015-Jul-04 05:33N 42°29' E 018°41'5 4.6
2015-Jul-04 04:31N 42°25' E 018°46'0 0.0
2015-Jul-04 03:31N 42°25' E 018°46'0 0.0
2015-Jul-04 02:28N 42°25' E 018°46'0 0.0
2015-Jul-04 01:28N 42°25' E 018°46'0 0.0
2015-Jul-04 00:31N 42°25' E 018°46'0 0.0
2015-Jul-03 23:31N 42°25' E 018°46'0 0.0
2015-Jul-03 22:31N 42°25' E 018°46'0 0.0
2015-Jul-03 21:31N 42°25' E 018°46'0 0.0
2015-Jul-03 20:31N 42°25' E 018°46'0 0.0
2015-Jul-03 19:31N 42°25' E 018°46'0 0.0
2015-Jul-03 18:31N 42°25' E 018°46'0 0.0
2015-Jul-03 17:31N 42°25' E 018°46'0 0.0
2015-Jul-03 16:31N 42°25' E 018°46'0 0.0
2015-Jul-03 15:31N 42°25' E 018°46'0 0.0
2015-Jul-03 14:31N 42°25' E 018°46'0 0.0
2015-Jul-03 13:28N 42°25' E 018°46'0 0.0
2015-Jul-03 12:33N 42°25' E 018°46'0 0.0
2015-Jul-03 11:33N 42°25' E 018°46'0 0.0
2015-Jul-03 10:33N 42°25' E 018°46'0 0.0
2015-Jul-03 09:33N 42°25' E 018°46'0 0.0
2015-Jul-03 08:32N 42°25' E 018°46'0 0.0
2015-Jul-03 07:26N 42°25' E 018°46'0 0.0
2015-Jul-03 06:32N 42°25' E 018°46'0 0.0
2015-Jul-03 05:33N 42°25' E 018°46'0 0.0
2015-Jul-03 04:32N 42°25' E 018°46'0 0.0
2015-Jul-03 03:32N 42°25' E 018°46'0 0.0
2015-Jul-03 02:33N 42°25' E 018°46'0 0.0
2015-Jul-03 01:33N 42°25' E 018°46'0 0.0
2015-Jul-03 00:33N 42°25' E 018°46'0 0.0
2015-Jul-02 23:32N 42°25' E 018°46'0 0.0
2015-Jul-02 22:32N 42°25' E 018°46'0 0.0
2015-Jul-02 21:32N 42°25' E 018°46'0 0.0
2015-Jul-02 20:32N 42°25' E 018°46'0 0.0
2015-Jul-02 19:32N 42°25' E 018°46'0 0.0
2015-Jul-02 18:33N 42°25' E 018°46'6 5.6
2015-Jul-02 17:33N 42°29' E 018°41'0 0.5
2015-Jul-02 16:33N 42°29' E 018°41'2 2.2
2015-Jul-02 15:33N 42°29' E 018°44'4 3.4
2015-Jul-02 14:29N 42°25' E 018°46'0 0.0
2015-Jul-02 13:32N 42°25' E 018°46'0 0.0
2015-Jul-02 12:29N 42°25' E 018°46'0 0.0
2015-Jul-02 11:32N 42°25' E 018°46'0 0.0
2015-Jul-02 10:23N 42°25' E 018°46'0 0.0
2015-Jul-02 09:32N 42°25' E 018°46'0 0.0
2015-Jul-02 08:32N 42°25' E 018°46'0 0.0
2015-Jul-02 07:32N 42°25' E 018°46'0 0.0
2015-Jul-02 06:32N 42°25' E 018°46'0 0.0
2015-Jul-02 05:32N 42°25' E 018°46'0 0.0
2015-Jul-02 04:32N 42°25' E 018°46'0 0.0
2015-Jul-02 03:32N 42°25' E 018°46'0 0.0
2015-Jul-02 02:32N 42°25' E 018°46'0 0.0
2015-Jul-02 01:32N 42°25' E 018°46'0 0.0
2015-Jul-02 00:32N 42°25' E 018°46'0 0.0
2015-Jul-01 23:32N 42°25' E 018°46'0 0.0
2015-Jul-01 22:32N 42°25' E 018°46'0 0.0
2015-Jul-01 21:32N 42°25' E 018°46'0 0.0
2015-Jul-01 20:32N 42°25' E 018°46'0 0.0
2015-Jul-01 19:32N 42°25' E 018°46'0 0.0
2015-Jul-01 18:32N 42°25' E 018°46'0 0.0
2015-Jul-01 17:29N 42°25' E 018°46'0 0.0
2015-Jul-01 16:32N 42°25' E 018°46'0 0.0
2015-Jul-01 15:32N 42°25' E 018°46'0 0.0
2015-Jul-01 14:32N 42°25' E 018°46'0 0.0
2015-Jul-01 13:32N 42°25' E 018°46'0 0.0
2015-Jul-01 12:32N 42°25' E 018°46'0 0.0
2015-Jul-01 11:32N 42°25' E 018°46'0 0.0
2015-Jul-01 10:32N 42°25' E 018°46'0 0.0
2015-Jul-01 09:32N 42°25' E 018°46'0 0.0
2015-Jul-01 08:32N 42°25' E 018°46'1 0.8
2015-Jul-01 07:33N 42°26' E 018°46'4 4.0
2015-Jul-01 06:33N 42°27' E 018°40'7 6.4
2015-Jul-01 05:32N 42°24' E 018°33'1110.9
2015-Jul-01 04:33N 42°13' E 018°36'  
2015-Jun-25 11:04N 38°08' E 022°43'27 7.6
2015-Jun-25 07:31N 37°50' E 023°09'1211.6
2015-Jun-25 06:31N 37°41' E 023°18'1010.3
2015-Jun-25 05:31N 37°33' E 023°25'3 1.5
2015-Jun-25 03:28N 37°30' E 023°27'0 0.0
2015-Jun-25 01:28N 37°30' E 023°27'0 0.0
2015-Jun-25 00:28N 37°30' E 023°27'0 0.0
2015-Jun-24 20:22N 37°30' E 023°27'0 0.0
2015-Jun-24 18:19N 37°30' E 023°27'2 1.2
2015-Jun-24 16:33N 37°32' E 023°25'9 8.7
2015-Jun-24 15:33N 37°39' E 023°19'7 5.6
2015-Jun-24 14:18N 37°38' E 023°10'0 0.0
2015-Jun-24 13:30N 37°38' E 023°10'  
Track history (hours):
 
Tides and Currents Weather Stations Pressure Air Temp Water Temp Dewpoint Dewpoint Depression Visibility Wind Speed Wind Dir Waves Ship Positions

Sovereign

Last reported at 2015-Jul-04 11:28 UTC. Time now 2015-Jul-07 00:21 UTC.
Position N 42°28' E 018°22'.

Length 55 m; draft 3 m.

Type: Pleasure craft. MMSI: 319931000.

Date/timePositionNaut miles runAvg speedWind from/ knotsBaromVisibWave heightAir tempDewpointWater temp
2015-Jul-04 11:28N 42°28' E 018°22'8 8.0
2015-Jul-04 10:26N 42°25' E 018°32'6 7.2
2015-Jul-04 09:33N 42°26' E 018°41'0 0.2
2015-Jul-04 07:10N 42°26' E 018°41'0 0.0
2015-Jul-04 06:31N 42°26' E 018°41'2 2.5
2015-Jul-04 05:33N 42°29' E 018°41'5 4.6
2015-Jul-04 04:31N 42°25' E 018°46'0 0.0
2015-Jul-04 03:31N 42°25' E 018°46'0 0.0
2015-Jul-04 02:28N 42°25' E 018°46'0 0.0
2015-Jul-04 01:28N 42°25' E 018°46'0 0.0
2015-Jul-04 00:31N 42°25' E 018°46'0 0.0
2015-Jul-03 23:31N 42°25' E 018°46'0 0.0
2015-Jul-03 22:31N 42°25' E 018°46'0 0.0
2015-Jul-03 21:31N 42°25' E 018°46'0 0.0
2015-Jul-03 20:31N 42°25' E 018°46'0 0.0
2015-Jul-03 19:31N 42°25' E 018°46'0 0.0
2015-Jul-03 18:31N 42°25' E 018°46'0 0.0
2015-Jul-03 17:31N 42°25' E 018°46'0 0.0
2015-Jul-03 16:31N 42°25' E 018°46'0 0.0
2015-Jul-03 15:31N 42°25' E 018°46'0 0.0
2015-Jul-03 14:31N 42°25' E 018°46'0 0.0
2015-Jul-03 13:28N 42°25' E 018°46'0 0.0
2015-Jul-03 12:33N 42°25' E 018°46'0 0.0
2015-Jul-03 11:33N 42°25' E 018°46'0 0.0
2015-Jul-03 10:33N 42°25' E 018°46'0 0.0
2015-Jul-03 09:33N 42°25' E 018°46'0 0.0
2015-Jul-03 08:32N 42°25' E 018°46'0 0.0
2015-Jul-03 07:26N 42°25' E 018°46'0 0.0
2015-Jul-03 06:32N 42°25' E 018°46'0 0.0
2015-Jul-03 05:33N 42°25' E 018°46'0 0.0
2015-Jul-03 04:32N 42°25' E 018°46'0 0.0
2015-Jul-03 03:32N 42°25' E 018°46'0 0.0
2015-Jul-03 02:33N 42°25' E 018°46'0 0.0
2015-Jul-03 01:33N 42°25' E 018°46'0 0.0
2015-Jul-03 00:33N 42°25' E 018°46'0 0.0
2015-Jul-02 23:32N 42°25' E 018°46'0 0.0
2015-Jul-02 22:32N 42°25' E 018°46'0 0.0
2015-Jul-02 21:32N 42°25' E 018°46'0 0.0
2015-Jul-02 20:32N 42°25' E 018°46'0 0.0
2015-Jul-02 19:32N 42°25' E 018°46'0 0.0
2015-Jul-02 18:33N 42°25' E 018°46'6 5.6
2015-Jul-02 17:33N 42°29' E 018°41'0 0.5
2015-Jul-02 16:33N 42°29' E 018°41'2 2.2
2015-Jul-02 15:33N 42°29' E 018°44'4 3.4
2015-Jul-02 14:29N 42°25' E 018°46'0 0.0
2015-Jul-02 13:32N 42°25' E 018°46'0 0.0
2015-Jul-02 12:29N 42°25' E 018°46'0 0.0
2015-Jul-02 11:32N 42°25' E 018°46'0 0.0
2015-Jul-02 10:23N 42°25' E 018°46'0 0.0
2015-Jul-02 09:32N 42°25' E 018°46'0 0.0
2015-Jul-02 08:32N 42°25' E 018°46'0 0.0
2015-Jul-02 07:32N 42°25' E 018°46'0 0.0
2015-Jul-02 06:32N 42°25' E 018°46'0 0.0
2015-Jul-02 05:32N 42°25' E 018°46'0 0.0
2015-Jul-02 04:32N 42°25' E 018°46'0 0.0
2015-Jul-02 03:32N 42°25' E 018°46'0 0.0
2015-Jul-02 02:32N 42°25' E 018°46'0 0.0
2015-Jul-02 01:32N 42°25' E 018°46'0 0.0
2015-Jul-02 00:32N 42°25' E 018°46'0 0.0
2015-Jul-01 23:32N 42°25' E 018°46'0 0.0
2015-Jul-01 22:32N 42°25' E 018°46'0 0.0
2015-Jul-01 21:32N 42°25' E 018°46'0 0.0
2015-Jul-01 20:32N 42°25' E 018°46'0 0.0
2015-Jul-01 19:32N 42°25' E 018°46'0 0.0
2015-Jul-01 18:32N 42°25' E 018°46'0 0.0
2015-Jul-01 17:29N 42°25' E 018°46'0 0.0
2015-Jul-01 16:32N 42°25' E 018°46'0 0.0
2015-Jul-01 15:32N 42°25' E 018°46'0 0.0
2015-Jul-01 14:32N 42°25' E 018°46'0 0.0
2015-Jul-01 13:32N 42°25' E 018°46'0 0.0
2015-Jul-01 12:32N 42°25' E 018°46'0 0.0
2015-Jul-01 11:32N 42°25' E 018°46'0 0.0
2015-Jul-01 10:32N 42°25' E 018°46'0 0.0
2015-Jul-01 09:32N 42°25' E 018°46'0 0.0
2015-Jul-01 08:32N 42°25' E 018°46'1 0.8
2015-Jul-01 07:33N 42°26' E 018°46'4 4.0
2015-Jul-01 06:33N 42°27' E 018°40'7 6.4
2015-Jul-01 05:32N 42°24' E 018°33'1110.9
2015-Jul-01 04:33N 42°13' E 018°36'  
2015-Jun-25 11:04N 38°08' E 022°43'27 7.6
2015-Jun-25 07:31N 37°50' E 023°09'1211.6
2015-Jun-25 06:31N 37°41' E 023°18'1010.3
2015-Jun-25 05:31N 37°33' E 023°25'3 1.5
2015-Jun-25 03:28N 37°30' E 023°27'0 0.0
2015-Jun-25 01:28N 37°30' E 023°27'0 0.0
2015-Jun-25 00:28N 37°30' E 023°27'0 0.0
2015-Jun-24 20:22N 37°30' E 023°27'0 0.0
2015-Jun-24 18:19N 37°30' E 023°27'2 1.2
2015-Jun-24 16:33N 37°32' E 023°25'9 8.7
2015-Jun-24 15:33N 37°39' E 023°19'7 5.6
2015-Jun-24 14:18N 37°38' E 023°10'0 0.0
2015-Jun-24 13:30N 37°38' E 023°10'  

Dump ship's entire track history